createdAt,value
2022-10-13T00:01:21.810Z,67.98
2022-10-13T00:03:50.590Z,67.98
2022-10-13T00:06:25.101Z,67.97
2022-10-13T00:08:54.204Z,67.68
2022-10-13T00:11:25.751Z,67.81
2022-10-13T00:13:57.813Z,67.70
2022-10-13T00:16:27.421Z,67.84
2022-10-13T00:18:55.711Z,67.53
2022-10-13T00:21:26.943Z,67.55
2022-10-13T00:23:55.696Z,67.70
2022-10-13T00:26:25.444Z,67.74
2022-10-13T00:28:55.588Z,67.66
2022-10-13T00:31:32.048Z,67.45
2022-10-13T00:34:01.942Z,67.69
2022-10-13T00:36:30.709Z,67.46
2022-10-13T00:38:59.212Z,67.76
2022-10-13T00:41:27.384Z,67.65
2022-10-13T00:44:01.295Z,67.73
2022-10-13T00:46:32.436Z,67.81
2022-10-13T00:49:10.030Z,67.96
2022-10-13T00:51:42.311Z,67.88
2022-10-13T00:54:14.366Z,67.83
2022-10-13T00:56:43.183Z,67.91
2022-10-13T00:59:22.817Z,68.23
2022-10-13T01:01:51.884Z,68.05
2022-10-13T01:04:23.649Z,68.19
2022-10-13T01:06:52.807Z,68.38
2022-10-13T01:09:21.020Z,68.33
2022-10-13T01:12:26.467Z,68.52
2022-10-13T01:15:07.953Z,68.36
2022-10-13T01:17:38.793Z,68.39
2022-10-13T01:20:12.599Z,68.18
2022-10-13T01:22:46.367Z,68.14
2022-10-13T01:25:23.381Z,68.13
2022-10-13T01:28:28.954Z,67.82
2022-10-13T01:31:07.453Z,67.71
2022-10-13T01:33:45.247Z,67.73
2022-10-13T01:36:31.033Z,67.84
2022-10-13T01:39:13.442Z,67.72
2022-10-13T01:41:49.704Z,67.56
2022-10-13T01:44:26.149Z,67.64
2022-10-13T01:46:55.401Z,67.63
2022-10-13T01:49:31.941Z,67.57
2022-10-13T01:52:04.826Z,67.62
2022-10-13T01:54:34.026Z,67.57
2022-10-13T01:57:02.298Z,67.64
2022-10-13T01:59:36.418Z,67.80
2022-10-13T02:02:40.220Z,67.55
2022-10-13T02:05:27.650Z,67.67
2022-10-13T02:07:58.587Z,67.86
2022-10-13T02:10:51.539Z,67.90
2022-10-13T02:13:24.936Z,67.77
2022-10-13T02:15:59.253Z,67.80
2022-10-13T02:18:32.362Z,67.76
2022-10-13T02:21:01.949Z,67.62
2022-10-13T02:23:30.606Z,67.75
2022-10-13T02:25:59.731Z,67.45
2022-10-13T02:28:28.556Z,67.49
2022-10-13T02:30:58.335Z,67.47
2022-10-13T02:33:26.402Z,67.42
2022-10-13T02:35:54.389Z,67.33
2022-10-13T02:38:22.654Z,67.36
2022-10-13T02:40:50.821Z,67.30
2022-10-13T02:43:18.892Z,67.21
2022-10-13T02:45:46.861Z,67.47
2022-10-13T02:48:14.931Z,67.54
2022-10-13T02:50:43.004Z,67.60
2022-10-13T02:53:11.074Z,67.54
2022-10-13T02:55:39.145Z,67.69
2022-10-13T02:58:07.423Z,67.72
2022-10-13T03:00:35.546Z,67.89
2022-10-13T03:03:03.668Z,67.97
2022-10-13T03:05:31.738Z,67.96
2022-10-13T03:07:59.823Z,68.10
2022-10-13T03:10:28.290Z,68.15
2022-10-13T03:12:56.361Z,68.23
2022-10-13T03:15:24.945Z,67.97
2022-10-13T03:17:55.883Z,67.91
2022-10-13T03:20:23.855Z,67.99
2022-10-13T03:22:51.924Z,67.83
2022-10-13T03:25:19.995Z,67.74
2022-10-13T03:27:48.171Z,67.69
2022-10-13T03:30:16.239Z,67.55
2022-10-13T03:32:44.208Z,67.43
2022-10-13T03:35:12.280Z,67.46
2022-10-13T03:37:40.352Z,67.39
2022-10-13T03:40:09.956Z,67.75
2022-10-13T03:42:38.646Z,67.64
2022-10-13T03:45:07.537Z,67.71
2022-10-13T03:47:37.531Z,67.56
2022-10-13T03:50:06.537Z,67.53
2022-10-13T03:52:34.616Z,67.62
2022-10-13T03:55:02.894Z,67.57
2022-10-13T03:57:30.964Z,67.77
2022-10-13T03:59:59.137Z,67.67
2022-10-13T04:02:28.029Z,67.89
2022-10-13T04:04:56.918Z,68.06
2022-10-13T04:07:24.990Z,67.99
2022-10-13T04:09:52.959Z,67.93
2022-10-13T04:12:21.396Z,67.95
2022-10-13T04:14:49.613Z,67.88
2022-10-13T04:17:17.685Z,67.78
2022-10-13T04:19:45.757Z,68.22
2022-10-13T04:22:13.931Z,68.13
2022-10-13T04:24:42.615Z,68.10
2022-10-13T04:27:10.791Z,67.95
2022-10-13T04:29:39.071Z,67.63
2022-10-13T04:32:07.034Z,67.75
2022-10-13T04:34:35.105Z,67.68
2022-10-13T04:37:03.073Z,67.65
2022-10-13T04:39:31.145Z,67.69
2022-10-13T04:41:59.320Z,67.50
2022-10-13T04:44:27.394Z,67.71
2022-10-13T04:46:55.627Z,67.65
2022-10-13T04:49:25.047Z,67.69
2022-10-13T04:51:53.344Z,67.89
2022-10-13T04:54:21.418Z,68.20
2022-10-13T04:56:49.385Z,68.16
2022-10-13T04:59:17.456Z,67.98
2022-10-13T05:01:45.529Z,67.89
2022-10-13T05:04:14.418Z,68.05
2022-10-13T05:07:05.375Z,68.34
2022-10-13T05:09:31.041Z,68.05
2022-10-13T05:11:59.116Z,67.92
2022-10-13T05:14:27.394Z,67.92
2022-10-13T05:16:55.460Z,67.85
2022-10-13T05:19:23.942Z,67.82
2022-10-13T05:21:53.247Z,67.76
2022-10-13T05:24:31.182Z,68.05
2022-10-13T05:26:59.316Z,68.01
2022-10-13T05:29:27.902Z,68.14
2022-10-13T05:31:55.972Z,67.96
2022-10-13T05:34:24.041Z,68.09
2022-10-13T05:36:52.113Z,67.93
2022-10-13T05:39:20.493Z,68.04
2022-10-13T05:41:48.462Z,68.11
2022-10-13T05:44:22.267Z,68.02
2022-10-13T05:46:57.155Z,68.17
2022-10-13T05:49:25.374Z,68.23
2022-10-13T05:52:01.541Z,68.33
2022-10-13T05:54:42.203Z,68.40
2022-10-13T05:57:20.831Z,68.59
2022-10-13T06:00:09.063Z,69.26
2022-10-13T06:02:50.229Z,69.18
2022-10-13T06:05:21.899Z,69.33
2022-10-13T06:07:56.135Z,69.16
2022-10-13T06:10:24.772Z,69.63
2022-10-13T06:12:52.768Z,69.75
2022-10-13T06:15:25.670Z,69.91
2022-10-13T06:17:57.509Z,70.15
2022-10-13T06:20:27.629Z,70.13
2022-10-13T06:22:56.622Z,70.21
2022-10-13T06:25:24.572Z,70.41
2022-10-13T06:27:52.560Z,70.44
2022-10-13T06:30:20.529Z,70.30
2022-10-13T06:32:48.624Z,70.68
2022-10-13T06:35:16.599Z,70.73
2022-10-13T06:37:46.573Z,70.92
2022-10-13T06:40:16.081Z,71.11
2022-10-13T06:42:49.906Z,70.97
2022-10-13T06:45:19.687Z,70.88
2022-10-13T06:47:47.780Z,71.04
2022-10-13T06:50:16.615Z,71.23
2022-10-13T06:52:44.568Z,71.21
2022-10-13T06:55:12.916Z,71.39
2022-10-13T06:57:40.987Z,71.42
2022-10-13T07:00:09.771Z,71.63
2022-10-13T07:02:38.767Z,71.70
2022-10-13T07:05:07.442Z,71.73
2022-10-13T07:07:35.422Z,71.86
2022-10-13T07:10:03.980Z,71.94
2022-10-13T07:12:31.976Z,71.85
2022-10-13T07:15:00.046Z,71.66
2022-10-13T07:17:28.117Z,71.78
2022-10-13T07:19:57.980Z,71.85
2022-10-13T07:22:27.127Z,71.75
2022-10-13T07:24:55.198Z,71.78
2022-10-13T07:27:24.269Z,71.40
2022-10-13T07:29:52.467Z,71.59
2022-10-13T07:32:20.644Z,71.56
2022-10-13T07:34:53.423Z,71.41
2022-10-13T07:37:22.151Z,71.13
2022-10-13T07:39:51.408Z,71.29
2022-10-13T07:42:19.481Z,71.66
2022-10-13T07:44:47.553Z,71.77
2022-10-13T07:47:15.629Z,72.07
2022-10-13T07:49:44.923Z,71.89
2022-10-13T07:52:12.995Z,72.01
2022-10-13T07:54:41.065Z,72.15
2022-10-13T07:57:09.442Z,72.06
2022-10-13T07:59:37.515Z,71.76
2022-10-13T08:02:05.586Z,71.63
2022-10-13T08:04:34.771Z,71.47
2022-10-13T08:07:06.019Z,71.61
2022-10-13T08:09:35.169Z,71.72
2022-10-13T08:12:03.757Z,72.14
2022-10-13T08:14:32.637Z,72.15
2022-10-13T08:17:01.488Z,72.08
2022-10-13T08:19:29.560Z,72.12
2022-10-13T08:21:59.193Z,72.22
2022-10-13T08:24:28.672Z,72.00
2022-10-13T08:26:56.950Z,71.80
2022-10-13T08:29:25.238Z,72.05
2022-10-13T08:31:54.371Z,71.68
2022-10-13T08:34:24.353Z,71.65
2022-10-13T08:36:54.911Z,71.34
2022-10-13T08:39:25.518Z,71.49
2022-10-13T08:41:56.639Z,71.16
2022-10-13T08:47:46.338Z,71.50
2022-10-13T08:50:18.404Z,71.16
2022-10-13T08:52:58.123Z,71.33
2022-10-13T08:55:35.443Z,71.27
2022-10-13T08:58:12.928Z,71.10
2022-10-13T09:00:42.238Z,70.80
2022-10-13T09:03:29.450Z,70.68
2022-10-13T09:06:11.653Z,70.76
2022-10-13T09:08:45.029Z,70.47
2022-10-13T09:11:13.426Z,70.43
2022-10-13T09:13:41.599Z,70.16
2022-10-13T09:16:09.672Z,70.24
2022-10-13T09:18:38.677Z,69.98
2022-10-13T09:21:23.633Z,69.77
2022-10-13T09:23:54.241Z,69.65
2022-10-13T09:26:25.319Z,69.79
2022-10-13T09:28:53.546Z,69.68
2022-10-13T09:31:30.468Z,69.43
2022-10-13T09:34:12.658Z,69.26
2022-10-13T09:37:00.096Z,69.21
2022-10-13T09:39:28.360Z,69.01
2022-10-13T09:42:25.514Z,68.70
2022-10-13T09:45:03.178Z,68.64
2022-10-13T09:47:33.347Z,68.56
2022-10-13T09:50:16.427Z,68.50
2022-10-13T09:52:48.376Z,68.16
2022-10-13T09:55:34.922Z,67.83
2022-10-13T09:58:22.755Z,67.79
2022-10-13T10:00:53.180Z,67.80
2022-10-13T10:03:32.585Z,67.52
2022-10-13T10:06:03.405Z,67.26
2022-10-13T10:09:01.430Z,66.87
2022-10-13T10:11:33.809Z,66.70
2022-10-13T10:14:28.988Z,66.85
2022-10-13T10:17:15.923Z,66.04
2022-10-13T10:19:49.827Z,66.02
2022-10-13T10:22:32.753Z,65.76
2022-10-13T10:25:19.455Z,65.86
2022-10-13T10:28:05.344Z,65.22
2022-10-13T10:30:37.308Z,65.10
2022-10-13T10:33:13.672Z,65.31
2022-10-13T10:35:49.628Z,65.00
2022-10-13T10:38:29.582Z,64.32
2022-10-13T10:41:19.053Z,64.36
2022-10-13T10:43:48.760Z,64.18
2022-10-13T10:46:23.669Z,63.85
2022-10-13T10:48:57.091Z,63.54
2022-10-13T10:51:32.020Z,63.64
2022-10-13T10:54:16.783Z,63.06
2022-10-13T10:57:07.691Z,63.21
2022-10-13T11:00:06.591Z,63.01
2022-10-13T11:02:49.913Z,63.07
2022-10-13T11:05:18.472Z,63.12
2022-10-13T11:07:46.772Z,63.10
2022-10-13T11:10:16.595Z,62.97
2022-10-13T11:12:53.464Z,63.12
2022-10-13T11:15:27.677Z,63.06
2022-10-13T11:17:55.748Z,62.87
2022-10-13T11:20:26.789Z,62.82
2022-10-13T11:22:57.831Z,62.49
2022-10-13T11:25:46.078Z,62.66
2022-10-13T11:28:23.210Z,62.83
2022-10-13T11:30:53.001Z,62.99
2022-10-13T11:33:39.067Z,62.98
2022-10-13T11:36:39.699Z,63.00
2022-10-13T11:39:28.910Z,62.70
2022-10-13T11:42:12.602Z,62.64
2022-10-13T11:45:02.383Z,62.32
2022-10-13T11:47:45.506Z,62.47
2022-10-13T11:50:37.541Z,62.82
2022-10-13T11:53:11.961Z,63.14
2022-10-13T11:55:39.930Z,62.66
2022-10-13T11:58:17.115Z,62.71
2022-10-13T12:01:01.056Z,63.05
2022-10-13T12:03:30.769Z,63.04
2022-10-13T12:06:26.691Z,62.86
2022-10-13T12:08:54.762Z,63.00
2022-10-13T12:11:44.134Z,63.04
2022-10-13T12:14:26.279Z,62.71
2022-10-13T12:16:59.427Z,62.37
2022-10-13T12:19:31.491Z,62.54
2022-10-13T12:22:01.576Z,62.60
2022-10-13T12:24:30.992Z,62.41
2022-10-13T12:26:59.292Z,62.48
2022-10-13T12:29:34.863Z,62.38
2022-10-13T12:32:22.056Z,62.31
2022-10-13T12:34:50.245Z,62.13
2022-10-13T12:37:33.875Z,62.00
2022-10-13T12:40:04.853Z,61.84
2022-10-13T12:42:36.260Z,61.68
2022-10-13T12:45:05.272Z,61.76
2022-10-13T12:47:45.403Z,61.24
2022-10-13T12:50:33.337Z,61.47
2022-10-13T12:53:16.360Z,61.25
2022-10-13T12:55:52.217Z,61.44
2022-10-13T12:58:25.610Z,61.41
2022-10-13T13:01:27.678Z,61.19
2022-10-13T13:04:01.689Z,60.51
2022-10-13T13:06:36.416Z,60.35
2022-10-13T13:09:30.707Z,60.30
2022-10-13T13:12:10.958Z,60.79
2022-10-13T13:14:49.503Z,61.04
2022-10-13T13:17:27.649Z,61.21
2022-10-13T13:20:21.354Z,61.01
2022-10-13T13:22:50.971Z,61.06
2022-10-13T13:25:19.448Z,61.03
2022-10-13T13:27:47.907Z,60.99
2022-10-13T13:30:20.501Z,61.10
2022-10-13T13:32:49.493Z,61.28
2022-10-13T13:35:17.874Z,61.22
2022-10-13T13:37:50.049Z,61.28
2022-10-13T13:40:26.610Z,61.23
2022-10-13T13:42:55.933Z,61.30
2022-10-13T13:45:26.542Z,61.33
2022-10-13T13:47:59.600Z,61.24
2022-10-13T13:50:34.256Z,61.12
2022-10-13T13:53:02.960Z,61.42
2022-10-13T13:55:31.422Z,61.30
2022-10-13T13:57:59.601Z,61.34
2022-10-13T14:00:27.668Z,61.47
2022-10-13T14:02:57.869Z,61.20
2022-10-13T14:05:26.402Z,61.55
2022-10-13T14:07:57.925Z,61.57
2022-10-13T14:10:26.866Z,61.30
2022-10-13T14:12:54.891Z,61.56
2022-10-13T14:15:27.263Z,61.31
2022-10-13T14:17:57.073Z,61.16
2022-10-13T14:20:25.140Z,61.33
2022-10-13T14:22:53.827Z,61.49
2022-10-13T14:25:22.000Z,61.58
2022-10-13T14:27:50.086Z,61.54
2022-10-13T14:30:18.355Z,61.35
2022-10-13T14:32:46.328Z,61.55
2022-10-13T14:35:14.387Z,61.76
2022-10-13T14:37:42.463Z,62.13
2022-10-13T14:40:11.247Z,62.05
2022-10-13T14:42:39.830Z,62.09
2022-10-13T14:45:09.833Z,62.41
2022-10-13T14:47:37.814Z,62.51
2022-10-13T14:50:06.615Z,62.72
2022-10-13T14:52:34.777Z,62.51
2022-10-13T14:55:03.052Z,62.68
2022-10-13T14:57:30.991Z,62.76
2022-10-13T15:00:03.047Z,63.02
2022-10-13T15:02:33.616Z,62.96
2022-10-13T15:05:01.892Z,62.93
2022-10-13T15:07:31.400Z,63.06
2022-10-13T15:10:06.743Z,63.08
2022-10-13T15:12:34.919Z,63.04
2022-10-13T15:15:04.116Z,63.15
2022-10-13T15:17:33.512Z,63.31
2022-10-13T15:20:01.994Z,63.34
2022-10-13T15:22:29.963Z,63.45
2022-10-13T15:24:58.238Z,63.55
2022-10-13T15:27:26.413Z,63.74
2022-10-13T15:29:54.483Z,63.81
2022-10-13T15:32:22.803Z,63.98
2022-10-13T15:34:52.878Z,64.01
2022-10-13T15:37:21.156Z,64.17
2022-10-13T15:39:52.079Z,64.29
2022-10-13T15:42:24.260Z,64.65
2022-10-13T15:47:40.678Z,64.86
2022-10-13T15:50:09.906Z,65.13
2022-10-13T15:52:41.457Z,65.17
2022-10-13T15:55:10.831Z,65.33
2022-10-13T15:57:39.215Z,65.74
2022-10-13T16:00:09.041Z,65.71
2022-10-13T16:02:41.600Z,65.89
2022-10-13T16:05:12.129Z,65.73
2022-10-13T16:07:41.535Z,66.02
2022-10-13T16:10:12.488Z,66.00
2022-10-13T16:12:49.267Z,65.90
2022-10-13T16:15:18.465Z,66.27
2022-10-13T16:17:46.627Z,66.48
2022-10-13T16:20:15.097Z,66.55
2022-10-13T16:22:43.168Z,66.69
2022-10-13T16:25:12.163Z,66.86
2022-10-13T16:27:44.084Z,67.11
2022-10-13T16:30:13.554Z,67.20
2022-10-13T16:32:41.598Z,67.23
2022-10-13T16:35:10.110Z,67.19
2022-10-13T16:37:38.255Z,67.23
2022-10-13T16:40:07.244Z,67.33
2022-10-13T16:42:36.446Z,67.35
2022-10-13T16:45:05.541Z,67.66
2022-10-13T16:47:33.544Z,67.58
2022-10-13T16:50:01.987Z,67.64
2022-10-13T16:52:29.956Z,67.63
2022-10-13T16:54:58.335Z,67.65
2022-10-13T16:57:26.509Z,67.98
2022-10-13T16:59:54.584Z,67.76
2022-10-13T17:02:22.651Z,67.91
2022-10-13T17:04:50.829Z,67.90
2022-10-13T17:07:19.049Z,68.02
2022-10-13T17:09:47.582Z,68.04
2022-10-13T17:12:15.866Z,68.18
2022-10-13T17:14:44.647Z,68.14
2022-10-13T17:17:12.616Z,68.17
2022-10-13T17:19:40.687Z,68.47
2022-10-13T17:22:08.656Z,68.32
2022-10-13T17:24:37.037Z,68.48
2022-10-13T17:27:05.107Z,68.63
2022-10-13T17:29:35.328Z,68.67
2022-10-13T17:32:03.603Z,68.76
2022-10-13T17:34:31.674Z,68.63
2022-10-13T17:37:02.275Z,68.68
2022-10-13T17:39:32.226Z,69.02
2022-10-13T17:42:00.190Z,68.98
2022-10-13T17:44:28.466Z,69.04
2022-10-13T17:46:56.537Z,69.12
2022-10-13T17:49:26.914Z,69.16
2022-10-13T17:51:56.164Z,69.39
2022-10-13T17:54:25.052Z,69.45
2022-10-13T17:56:55.479Z,69.37
2022-10-13T17:59:23.856Z,69.39
2022-10-13T18:01:51.973Z,69.42
2022-10-13T18:04:21.845Z,69.53
2022-10-13T18:06:49.914Z,69.59
2022-10-13T18:09:20.344Z,69.47
2022-10-13T18:11:50.996Z,69.61
2022-10-13T18:14:21.399Z,69.53
2022-10-13T18:16:51.131Z,69.60
2022-10-13T18:19:19.663Z,69.57
2022-10-13T18:21:48.182Z,69.39
2022-10-13T18:24:16.353Z,69.43
2022-10-13T18:26:45.236Z,69.78
2022-10-13T18:29:14.025Z,69.90
2022-10-13T18:31:42.823Z,70.01
2022-10-13T18:34:14.469Z,70.01
2022-10-13T18:36:48.618Z,69.98
2022-10-13T18:39:19.828Z,70.14
2022-10-13T18:41:50.867Z,70.00
2022-10-13T18:44:19.879Z,69.76
2022-10-13T18:46:53.154Z,69.93
2022-10-13T18:49:23.991Z,70.11
2022-10-13T18:51:52.269Z,70.18
2022-10-13T18:54:20.647Z,70.12
2022-10-13T18:56:48.716Z,70.03
2022-10-13T18:59:19.191Z,70.13
2022-10-13T19:01:47.913Z,69.94
2022-10-13T19:04:17.141Z,69.95
2022-10-13T19:06:46.629Z,69.94
2022-10-13T19:09:17.825Z,69.97
2022-10-13T19:11:46.238Z,69.89
2022-10-13T19:14:17.301Z,70.06
2022-10-13T19:16:45.679Z,70.05
2022-10-13T19:19:14.418Z,70.14
2022-10-13T19:21:42.742Z,70.00
2022-10-13T19:24:12.146Z,70.13
2022-10-13T19:26:40.727Z,70.06
2022-10-13T19:29:12.280Z,70.03
2022-10-13T19:31:42.006Z,69.96
2022-10-13T19:34:12.568Z,69.66
2022-10-13T19:36:43.973Z,69.85
2022-10-13T19:39:23.537Z,70.02
2022-10-13T19:41:54.142Z,70.17
2022-10-13T19:44:24.159Z,70.00
2022-10-13T19:46:53.504Z,70.14
2022-10-13T19:49:25.425Z,70.05
2022-10-13T19:51:55.134Z,70.18
2022-10-13T19:54:24.238Z,70.21
2022-10-13T19:56:52.502Z,70.31
2022-10-13T19:59:21.125Z,70.33
2022-10-13T20:01:49.360Z,70.27
2022-10-13T20:04:20.677Z,70.24
2022-10-13T20:06:50.309Z,70.29
2022-10-13T20:09:19.003Z,70.26
2022-10-13T20:11:51.071Z,70.10
2022-10-13T20:14:19.244Z,70.08
2022-10-13T20:16:48.234Z,70.21
2022-10-13T20:19:19.618Z,70.22
2022-10-13T20:21:51.820Z,70.15
2022-10-13T20:24:21.868Z,70.03
2022-10-13T20:26:50.556Z,70.09
2022-10-13T20:29:22.312Z,70.04
2022-10-13T20:31:50.486Z,70.14
2022-10-13T20:34:18.557Z,70.13
2022-10-13T20:36:47.165Z,70.27
2022-10-13T20:39:15.621Z,70.09
2022-10-13T20:41:43.962Z,70.24
2022-10-13T20:44:12.584Z,70.34
2022-10-13T20:46:40.552Z,70.32
2022-10-13T20:49:12.000Z,70.65
2022-10-13T20:51:42.224Z,70.57
2022-10-13T20:54:13.065Z,70.62
2022-10-13T20:56:41.843Z,70.73
2022-10-13T20:59:12.688Z,70.60
2022-10-13T21:01:41.042Z,70.31
2022-10-13T21:04:10.365Z,70.29
2022-10-13T21:06:38.950Z,70.40
2022-10-13T21:09:07.399Z,70.23
2022-10-13T21:11:36.425Z,70.16
2022-10-13T21:14:07.171Z,70.20
2022-10-13T21:16:38.775Z,70.35
2022-10-13T21:19:15.251Z,70.44
2022-10-13T21:21:43.451Z,70.40
2022-10-13T21:24:11.834Z,70.61
2022-10-13T21:26:41.660Z,70.45
2022-10-13T21:29:15.448Z,70.46
2022-10-13T21:31:43.825Z,70.53
2022-10-13T21:34:13.551Z,70.22
2022-10-13T21:36:44.624Z,70.35
2022-10-13T21:39:16.479Z,70.13
2022-10-13T21:41:45.233Z,70.39
2022-10-13T21:44:14.731Z,70.51
2022-10-13T21:46:43.005Z,70.52
2022-10-13T21:49:11.179Z,70.34
2022-10-13T21:51:40.791Z,70.19
2022-10-13T21:54:12.864Z,70.16
2022-10-13T21:56:42.356Z,70.11
2022-10-13T21:59:12.789Z,70.23
2022-10-13T22:01:41.781Z,70.11
2022-10-13T22:04:14.772Z,70.17
2022-10-13T22:06:43.038Z,70.47
2022-10-13T22:09:11.525Z,70.35
2022-10-13T22:11:40.616Z,70.13
2022-10-13T22:14:12.383Z,70.30
2022-10-13T22:16:46.485Z,70.29
2022-10-13T22:19:16.931Z,70.25
2022-10-13T22:21:49.593Z,70.08
2022-10-13T22:24:21.251Z,70.20
2022-10-13T22:26:50.336Z,70.43
2022-10-13T22:29:20.978Z,70.14
2022-10-13T22:31:50.478Z,70.30
2022-10-13T22:34:18.550Z,70.53
2022-10-13T22:36:46.523Z,69.98
2022-10-13T22:39:15.000Z,70.24
2022-10-13T22:41:43.181Z,70.32
2022-10-13T22:44:11.316Z,70.26
2022-10-13T22:46:40.430Z,70.36
2022-10-13T22:49:13.565Z,70.39
2022-10-13T22:51:41.807Z,70.00
2022-10-13T22:54:10.200Z,70.11
2022-10-13T22:56:38.257Z,70.28
2022-10-13T22:59:08.286Z,70.20
2022-10-13T23:01:37.357Z,70.19
2022-10-13T23:04:05.995Z,70.20
2022-10-13T23:06:35.377Z,70.11
2022-10-13T23:09:10.496Z,70.37
2022-10-13T23:11:39.594Z,69.98
2022-10-13T23:14:09.709Z,70.24
2022-10-13T23:16:38.291Z,70.26
2022-10-13T23:19:06.572Z,70.67
2022-10-13T23:21:34.842Z,70.09
2022-10-13T23:24:05.758Z,70.34
2022-10-13T23:26:34.763Z,70.32
2022-10-13T23:29:04.723Z,70.50
2022-10-13T23:31:33.171Z,70.95
2022-10-13T23:34:01.342Z,70.91
2022-10-13T23:36:32.037Z,71.14
2022-10-13T23:39:03.225Z,70.96
2022-10-13T23:41:33.236Z,70.78
2022-10-13T23:44:01.615Z,70.67
2022-10-13T23:46:29.789Z,70.72
2022-10-13T23:48:57.860Z,70.82
2022-10-13T23:51:26.928Z,70.65
2022-10-13T23:53:55.948Z,71.07
2022-10-13T23:56:24.123Z,70.90
2022-10-13T23:58:52.099Z,70.63
